Greenway, Virginia
Current Conditions -  °F | °C
As of 2:52 AM on Thursday 23 Oct 2014 (Local Time) from KIAD Reporting Station
Broken Clouds Broken Clouds  
Wind Chill: 50°   Ceiling: 3800
Heat Index: 50°   Visibility: 10mi
Dew Point: 41°   Wind: 21mph
Humidity: 71%   Direction: 310°NW
Pressure: 29.92"   Gusts: 25mph
Location:  38.98°N, 77.25°W
Report Text: KIAD 230652Z 31018G22KT 10SM BKN038 10/05 A2992 RMK AO2 SLP130 T01000050
Loading
Personal Weather Stations






























Interactive Weather Map
Tropical Storm Tracking
New forecast layout! Learn more

10-Day Weather Forecast

Advertisements
Track Severe Weather on mobile